Flight Track Log - Related Links

Times and Time Zones

All times are in EDT time to prevent confusion due to time zone crossing. See the DAL2642 flight status page for this flight to view local times or setup timezone preferences in your user account.

Time Position Orientation Groundspeed Altitude Reporting Facility
EDT Latitude Longitude Course Direction KTS MPH feet Rate Location/Type
Sat 07:17:32 PM 28.4167 -81.3167 270° West 167 192 800  Level Orlando TRACON
Sat 07:18:38 PM 28.3500 -81.3500 204° Southwest 235 270 2,600 2,050 Climbing Orlando TRACON
Sat 07:19:32 PM 28.3333 -81.4167 254° West 249 287 4,900 2,690 Climbing Orlando TRACON
Sat 07:20:00 PM 28.4167 -81.7145 270° West  Level FlightAware Approximate
Sat 07:21:00 PM 28.4167 -81.8527 270° West  Level FlightAware Approximate
Sat 07:21:03 PM 28.3306 -81.5414 269° West 301 346 9,100  Level Jacksonville Center
Sat 07:22:00 PM 28.4167 -81.9909 270° West  Level FlightAware Approximate
Sat 07:22:03 PM 28.3358 -81.6356 274° West 301 346 11,000  Level Jacksonville Center
Sat 07:23:03 PM 28.3575 -81.7367 284° West 314 361 13,500 1,800 Climbing Jacksonville Center
Sat 07:24:03 PM 28.3794 -81.8522 282° West 345 397 14,600 1,500 Climbing Jacksonville Center
Sat 07:25:03 PM 28.3992 -81.9769 280° West 381 438 16,500 2,200 Climbing Jacksonville Center
Sat 07:26:03 PM 28.4250 -82.1042 283° West 406 467 19,000 2,200 Climbing Jacksonville Center
Sat 07:27:03 PM 28.4444 -82.2317 280° West 412 474 20,900 1,850 Climbing Jacksonville Center
Sat 07:28:03 PM 28.4661 -82.3614 281° West 412 474 22,700 1,600 Climbing Jacksonville Center
Sat 07:29:03 PM 28.5331 -82.4625 307° West 387 445 24,100 950 Climbing Jacksonville Center
Sat 07:30:03 PM 28.6439 -82.5211 335° Northwest 393 452 24,600 450 Climbing Jacksonville Center
Sat 07:31:03 PM 28.7611 -82.5847 335° Northwest 428 493 25,000 650 Climbing Jacksonville Center
Sat 07:32:03 PM 28.8822 -82.6508 334° Northwest 451 519 25,900 1,050 Climbing Jacksonville Center
Sat 07:33:03 PM 29.0033 -82.7192 334° Northwest 472 543 27,100 1,150 Climbing Jacksonville Center
Sat 07:34:03 PM 29.1267 -82.7856 335° Northwest 479 551 28,200 1,050 Climbing Jacksonville Center
Sat 07:35:03 PM 29.2497 -82.8544 334° Northwest 484 557 29,200 1,050 Climbing Jacksonville Center
Sat 07:36:03 PM 29.3731 -82.9236 334° Northwest 489 563 30,300 1,150 Climbing Jacksonville Center
Sat 07:37:03 PM 29.4939 -82.9928 334° Northwest 489 563 31,500 850 Climbing Jacksonville Center
Sat 07:38:03 PM 29.6089 -83.0550 335° Northwest 496 571 32,000 200 Climbing Jacksonville Center
Sat 07:39:03 PM 29.7361 -83.1175 337° Northwest 496 571 31,900 550 Descending Jacksonville Center
Sat 07:40:03 PM 29.8550 -83.1919 331° Northwest 490 564 33,100 1,050 Climbing Jacksonville Center
Sat 07:41:03 PM 29.9653 -83.2714 328° Northwest 478 550 34,000 450 Climbing Jacksonville Center
Sat 07:42:03 PM 30.0800 -83.3486 330° Northwest 473 544 34,000  Level Jacksonville Center
Sat 07:43:03 PM 30.1922 -83.4283 328° Northwest 473 544 34,000  Level Jacksonville Center
Sat 07:44:03 PM 30.3047 -83.5061 329° Northwest 473 544 34,000 200 Level Jacksonville Center
Sat 07:45:03 PM 30.4214 -83.5767 332° Northwest 473 544 34,400 650 Climbing Jacksonville Center
Sat 07:46:03 PM 30.5486 -83.5631 North 443 510 35,300 800 Climbing Jacksonville Center
Sat 07:47:03 PM 30.6700 -83.5156 19° North 439 505 36,000 300 Climbing Jacksonville Center
Sat 07:48:03 PM 30.7933 -83.4731 16° North 448 516 35,900  Descending Jacksonville Center
Sat 07:49:03 PM 30.9231 -83.4278 17° North 443 510 36,000 50 Climbing Jacksonville Center
Sat 07:50:03 PM 31.0444 -83.3872 16° North 443 510 36,000  Level Jacksonville Center
Sat 07:51:46 PM 31.2467 -83.3492 North 459 528 36,000  Level Atlanta Center
Sat 07:52:47 PM 31.3736 -83.3603 356° North 461 531 36,000  Level Atlanta Center
Sat 07:53:49 PM 31.5164 -83.4250 339° North 460 529 36,000  Level Atlanta Center
Sat 07:54:51 PM 31.6356 -83.4797 339° North 460 529 36,000  Level Atlanta Center
Sat 07:55:52 PM 31.7550 -83.5344 339° North 463 533 36,000  Level Atlanta Center
Sat 07:56:54 PM 31.8725 -83.5925 337° Northwest 469 540 36,000  Level Atlanta Center
Sat 07:57:55 PM 31.9939 -83.6472 339° North 469 540 36,000  Level Atlanta Center
Sat 07:58:57 PM 32.1069 -83.7100 335° Northwest 457 526 36,000  Level Atlanta Center
Sat 07:59:58 PM 32.2414 -83.7936 332° Northwest 457 526 36,000  Level Atlanta Center
Sat 08:01:00 PM 32.3506 -83.8731 328° Northwest 458 527 36,000  Level Atlanta Center
Sat 08:02:01 PM 32.4592 -83.9508 329° Northwest 458 527 36,000  Level Atlanta Center
Sat 08:03:03 PM 32.5672 -84.0303 328° Northwest 457 526 36,000  Level Atlanta Center
Sat 08:04:04 PM 32.6767 -84.1075 329° Northwest 457 526 36,000  Level Atlanta Center
Sat 08:05:06 PM 32.7833 -84.1847 329° Northwest 451 519 36,000  Level Atlanta Center
Sat 08:06:08 PM 32.8867 -84.2603 328° Northwest 445 512 36,000  Level Atlanta Center
Sat 08:07:09 PM 33.0114 -84.3519 328° Northwest 442 509 36,000  Level Atlanta Center
Sat 08:08:11 PM 33.1175 -84.4269 329° Northwest 442 509 36,000  Level Atlanta Center
Sat 08:09:13 PM 33.2242 -84.5022 329° Northwest 442 509 36,000  Level Atlanta Center
Sat 08:10:15 PM 33.3336 -84.5683 333° Northwest 441 507 36,000  Level Atlanta Center
Sat 08:11:16 PM 33.4472 -84.6253 337° Northwest 443 510 36,000  Level Atlanta Center
Sat 08:12:18 PM 33.5678 -84.6667 344° North 460 529 36,000  Level Atlanta Center
Sat 08:13:20 PM 33.7006 -84.6906 351° North 451 519 36,000  Level Atlanta Center
Sat 08:14:22 PM 33.8233 -84.7153 351° North 450 518 36,000  Level Atlanta Center
Sat 08:15:24 PM 33.9450 -84.7353 352° North 441 507 36,000  Level Atlanta Center
Sat 08:16:25 PM 34.0967 -84.7633 351° North 453 521 36,000  Level Atlanta Center
Sat 08:17:27 PM 34.2283 -84.7889 351° North 494 568 36,000  Level Atlanta Center
Sat 08:18:29 PM 34.3561 -84.8128 351° North 472 543 36,000  Level Atlanta Center
Sat 08:19:31 PM 34.4842 -84.8372 351° North 468 539 36,000  Level Atlanta Center
Sat 08:20:33 PM 34.6122 -84.8603 352° North 468 539 36,000  Level Atlanta Center
Sat 08:21:35 PM 34.7344 -84.8864 350° North 437 503 36,000  Level Atlanta Center
Sat 08:22:37 PM 34.8603 -84.9097 351° North 448 516 36,000  Level Atlanta Center
Sat 08:23:38 PM 35.0103 -84.9397 351° North 454 522 36,000  Level Atlanta Center
Sat 08:24:40 PM 35.1347 -84.9661 350° North 454 522 36,000  Level Atlanta Center
Sat 08:25:42 PM 35.2583 -84.9903 351° North 453 521 36,000  Level Atlanta Center
Sat 08:26:44 PM 35.3850 -84.9939 359° North 454 522 36,000  Level Atlanta Center
Sat 08:27:46 PM 35.5111 -85.0078 355° North 453 521 36,000  Level Atlanta Center
Sat 08:28:48 PM 35.6361 -85.0194 356° North 453 521 36,000  Level Atlanta Center
Sat 08:29:50 PM 35.7617 -85.0331 355° North 450 518 36,000  Level Atlanta Center
Sat 08:30:42 PM 35.8922 -85.0614 350° North 472 543 36,000  Level Indianapolis Center
Sat 08:31:43 PM 36.0139 -85.0911 349° North 451 519 36,000  Level Indianapolis Center
Sat 08:32:44 PM 36.1356 -85.1203 349° North 446 513 36,000  Level Indianapolis Center
Sat 08:33:45 PM 36.2519 -85.1675 342° North 444 511 36,000  Level Indianapolis Center
Sat 08:34:46 PM 36.3664 -85.2144 342° North 434 499 36,000  Level Indianapolis Center
Sat 08:35:47 PM 36.4814 -85.2622 342° North 434 499 36,000  Level Indianapolis Center
Sat 08:36:48 PM 36.5975 -85.3092 342° North 435 501 36,000  Level Indianapolis Center
Sat 08:37:49 PM 36.7119 -85.3572 341° North 435 501 36,000  Level Indianapolis Center
Sat 08:38:50 PM 36.8281 -85.4044 342° North 435 501 36,000 49 Level Indianapolis Center
Sat 08:39:51 PM 36.9444 -85.4536 341° North 436 502 36,100 492 Climbing Indianapolis Center
Sat 08:40:52 PM 37.0608 -85.5022 342° North 439 505 37,000 885 Climbing Indianapolis Center
Sat 08:41:53 PM 37.1839 -85.5547 341° North 439 505 37,900 496 Climbing Indianapolis Center
Sat 08:42:53 PM 37.3014 -85.6044 341° North 436 502 38,000 50 Climbing Indianapolis Center
Sat 08:43:54 PM 37.4153 -85.6525 341° North 435 501 38,000  Level Indianapolis Center
Sat 08:44:55 PM 37.5297 -85.7050 340° North 434 499 38,000  Level Indianapolis Center
Sat 08:45:56 PM 37.6319 -85.7822 329° Northwest 433 498 38,000  Level Indianapolis Center
Sat 08:46:57 PM 37.7339 -85.8586 329° Northwest 429 494 38,000  Level Indianapolis Center
Sat 08:47:58 PM 37.8353 -85.9372 329° Northwest 429 494 38,000  Level Indianapolis Center
Sat 08:48:59 PM 37.9400 -86.0139 330° Northwest 429 494 38,000  Level Indianapolis Center
Sat 08:50:00 PM 38.0436 -86.0919 329° Northwest 430 495 38,000  Level Indianapolis Center
Sat 08:51:01 PM 38.1483 -86.1719 329° Northwest 435 501 38,000  Level Indianapolis Center
Sat 08:52:02 PM 38.2522 -86.2500 329° Northwest 435 501 38,000 -934 Level Indianapolis Center
Sat 08:53:03 PM 38.3558 -86.3269 330° Northwest 435 501 36,100 -984 Descending Indianapolis Center
Sat 08:54:04 PM 38.4978 -86.3786 344° North 449 517 36,000 -49 Descending Indianapolis Center
Sat 08:55:05 PM 38.6167 -86.4222 344° North 449 517 36,000  Level Indianapolis Center
Sat 08:56:06 PM 38.7342 -86.4692 343° North 448 516 36,000  Level Indianapolis Center
Sat 08:57:07 PM 38.8539 -86.5147 343° North 448 516 36,000  Level Indianapolis Center
Sat 08:58:08 PM 38.9814 -86.5658 343° North 448 516 36,000  Level Indianapolis Center
Sat 08:59:09 PM 39.0944 -86.6094 343° North 449 517 36,000  Level Indianapolis Center
Sat 09:00:10 PM 39.2228 -86.6606 343° North 450 518 36,000  Level Indianapolis Center
Sat 09:01:11 PM 39.3444 -86.7089 343° North 451 519 36,000  Level Indianapolis Center
Sat 09:02:12 PM 39.4653 -86.7561 343° North 451 519 36,000  Level Indianapolis Center
Sat 09:03:13 PM 39.5858 -86.8033 343° North 451 519 36,000  Level Indianapolis Center
Sat 09:04:14 PM 39.7058 -86.8503 343° North 450 518 36,000  Level Indianapolis Center
Sat 09:05:15 PM 39.8256 -86.8994 342° North 449 517 36,000  Level Indianapolis Center
Sat 09:06:16 PM 39.9439 -86.9461 343° North 448 516 36,000  Level Indianapolis Center
Sat 09:07:18 PM 40.0628 -86.9936 343° North 448 516 36,000  Level Indianapolis Center
Sat 09:07:59 PM 40.1567 -87.0325 342° North 442 509 36,000  Level Chicago Center
Sat 09:09:00 PM 40.2758 -87.0806 343° North 445 512 36,000  Level Chicago Center
Sat 09:10:02 PM 40.3939 -87.1275 343° North 442 509 36,000  Level Chicago Center
Sat 09:11:03 PM 40.5019 -87.1717 343° North 442 509 36,000  Level Chicago Center
Sat 09:12:04 PM 40.6200 -87.2197 343° North 443 510 36,000  Level Chicago Center
Sat 09:13:06 PM 40.7606 -87.2769 343° North 440 506 36,000  Level Chicago Center
Sat 09:14:07 PM 40.8781 -87.3256 343° North 441 507 36,000  Level Chicago Center
Sat 09:15:08 PM 40.9950 -87.3742 343° North 442 509 36,000  Level Chicago Center
Sat 09:16:10 PM 41.1103 -87.4222 343° North 439 505 36,000  Level Chicago Center
Sat 09:17:11 PM 41.2283 -87.4703 343° North 442 509 36,000  Level Chicago Center
Sat 09:18:12 PM 41.3458 -87.5194 343° North 442 509 36,000  Level Chicago Center
Sat 09:19:14 PM 41.4636 -87.5689 343° North 443 510 36,000  Level Chicago Center
Sat 09:20:15 PM 41.5692 -87.6447 332° Northwest 441 507 36,000  Level Chicago Center
Sat 09:21:16 PM 41.6886 -87.7508 326° Northwest 436 502 36,000  Level Chicago Center
Sat 09:22:18 PM 41.7897 -87.8383 327° Northwest 436 502 36,000  Level Chicago Center
Sat 09:23:19 PM 41.8914 -87.9300 326° Northwest 441 507 36,000  Level Chicago Center
Sat 09:24:20 PM 41.9939 -88.0208 327° Northwest 441 507 36,000  Level Chicago Center
Sat 09:25:22 PM 42.0975 -88.1147 326° Northwest 449 517 36,000  Level Chicago Center
Sat 09:26:23 PM 42.2014 -88.2083 326° Northwest 450 518 36,000  Level Chicago Center
Sat 09:27:24 PM 42.3061 -88.3031 326° Northwest 451 519 36,000  Level Chicago Center
Sat 09:28:26 PM 42.4225 -88.4092 326° Northwest 455 524 36,000  Level Chicago Center
Sat 09:29:27 PM 42.5286 -88.5031 327° Northwest 455 524 36,000  Level Chicago Center
Sat 09:30:28 PM 42.6339 -88.6028 325° Northwest 456 525 36,000  Level Chicago Center
Sat 09:31:30 PM 42.7392 -88.6989 326° Northwest 457 526 36,000  Level Chicago Center
Sat 09:32:31 PM 42.8453 -88.7969 326° Northwest 457 526 36,000  Level Chicago Center
Sat 09:33:32 PM 42.9714 -88.9153 326° Northwest 457 526 36,000  Level Chicago Center
Sat 09:34:34 PM 43.0775 -89.0139 326° Northwest 457 526 36,000  Level Chicago Center
Sat 09:35:35 PM 43.1833 -89.1094 327° Northwest 455 524 36,000  Level Chicago Center
Sat 09:36:37 PM 43.3081 -89.1639 342° North 465 535 36,000  Level Chicago Center
Sat 09:37:38 PM 43.4325 -89.2167 343° North 465 535 36,000  Level Chicago Center
Sat 09:38:39 PM 43.5514 -89.2836 338° Northwest 462 532 36,000  Level Chicago Center
Sat 09:39:41 PM 43.6461 -89.4019 318° Northwest 459 528 36,000  Level Chicago Center
Sat 09:40:42 PM 43.7389 -89.5231 317° Northwest 457 526 36,000  Level Chicago Center
Sat 09:41:43 PM 43.8322 -89.6417 318° Northwest 457 526 36,000  Level Chicago Center
Sat 09:42:45 PM 43.9256 -89.7614 317° Northwest 456 525 36,000 -244 Level Chicago Center
Sat 09:43:46 PM 44.0164 -89.8819 316° Northwest 456 525 35,500 -984 Descending Chicago Center
Sat 09:44:47 PM 44.1164 -90.0319 313° West 443 510 34,000 -732 Descending Chicago Center
Sat 09:45:49 PM 44.1900 -90.1692 307° West 444 511 34,000  Level Chicago Center
Sat 09:46:50 PM 44.2683 -90.3056 309° West 450 518 34,000  Level Chicago Center
Sat 09:47:51 PM 44.3411 -90.4442 306° West 449 517 34,000  Level Chicago Center
Sat 09:48:53 PM 44.4008 -90.5961 299° West 448 516 34,000  Level Chicago Center
Sat 09:49:54 PM 44.4594 -90.7467 299° West 446 513 34,000 -443 Level Chicago Center
Sat 09:50:55 PM 44.5181 -90.8994 298° West 446 513 33,100 -934 Descending Chicago Center
Sat 09:51:56 PM 44.5792 -91.0531 299° West 446 513 32,100 -1,415 Descending Chicago Center
Sat 09:52:58 PM 44.6383 -91.2075 298° West 447 514 30,200 -2,927 Descending Chicago Center
Sat 09:53:59 PM 44.7100 -91.3936 299° West 447 514 26,100 -3,147 Descending Chicago Center
Sat 09:55:21 PM 44.7842 -91.5911 298° West 451 519 22,700 -2,517 Descending Minneapolis Center
Sat 09:56:22 PM 44.8425 -91.7450 298° West 451 519 20,100 -2,439 Descending Minneapolis Center
Sat 09:57:24 PM 44.8981 -91.8922 298° West 434 499 17,700 -2,390 Descending Minneapolis Center
Sat 09:58:25 PM 44.9506 -92.0325 298° West 409 471 15,200 -2,361 Descending Minneapolis Center
Sat 09:59:26 PM 45.0019 -92.1664 299° West 392 451 12,900 -2,066 Descending Minneapolis Center
Sat 10:00:27 PM 45.0431 -92.3236 290° West 362 417 11,000 -934 Descending Minneapolis Center
Sat 10:01:28 PM 45.0222 -92.4578 258° West 351 404 11,000  Level Minneapolis Center
Sat 10:02:29 PM 45.0011 -92.5906 257° West 350 403 11,000  Level Minneapolis Center
Sat 10:03:31 PM 44.9800 -92.7244 257° West 350 403 11,000 -49 Level Minneapolis Center
Sat 10:04:32 PM 44.9586 -92.8564 257° West 348 400 10,900 -492 Descending Minneapolis Center
Sat 10:05:33 PM 44.9411 -92.9658 257° West 290 334 10,000 -1,328 Descending Minneapolis Center
Sat 10:06:34 PM 44.9267 -93.0714 259° West 280 322 8,200 -2,016 Descending Minneapolis Center
Sat 10:07:35 PM 44.9653 -93.1581 302° West 264 304 5,900 -2,016 Descending Minneapolis Center
Sat 10:08:36 PM 45.0067 -93.2386 306° West 258 297 4,100 -1,131 Descending Minneapolis Center
Sat 10:09:37 PM 45.0025 -93.3211 266° West 201 231 3,600 -344 Descending Minneapolis Center
Sat 10:10:38 PM 44.9581 -93.3494 204° Southwest 179 206 3,400 -683 Descending Minneapolis Center
Sat 10:11:40 PM 44.9244 -93.3194 148° Southeast 149 171 2,200 -976 Descending Minneapolis Center
Sat 10:12:41 PM 44.9039 -93.2711 121° Southeast 144 166 1,400 -787 Descending Minneapolis Center

Login

Don't have an account? Register now (free) for customized features, flight alerts, and more!